TimeCDT,TemperatureF,Dew PointF,Humidity,Sea Level PressureIn,VisibilityMPH,Wind Direction,Wind SpeedMPH,Gust SpeedMPH,PrecipitationIn,Events,Conditions,WindDirDegrees,DateUTC
12:53 AM,48.9,28.0,44,30.09,10.0,East,4.6,-,N/A,,Clear,90,2013-05-27 05:53:00
1:53 AM,44.1,28.9,55,30.12,10.0,Calm,Calm,-,N/A,,Clear,0,2013-05-27 06:53:00
2:53 AM,39.0,28.9,67,30.11,10.0,Calm,Calm,-,N/A,,Clear,0,2013-05-27 07:53:00
3:53 AM,41.0,30.9,67,30.11,10.0,Calm,Calm,-,N/A,,Clear,0,2013-05-27 08:53:00
4:53 AM,46.0,28.9,51,30.09,10.0,East,3.5,-,N/A,,Clear,90,2013-05-27 09:53:00
5:53 AM,45.0,30.9,58,30.11,10.0,ESE,4.6,-,N/A,,Clear,110,2013-05-27 10:53:00
6:53 AM,46.9,33.1,59,30.10,10.0,East,3.5,-,N/A,,Clear,100,2013-05-27 11:53:00
7:53 AM,52.0,36.0,54,30.09,10.0,ESE,6.9,-,N/A,,Clear,110,2013-05-27 12:53:00
8:53 AM,57.0,39.0,51,30.06,10.0,ESE,9.2,-,N/A,,Partly Cloudy,110,2013-05-27 13:53:00
9:53 AM,61.0,43.0,52,30.06,10.0,SE,12.7,-,N/A,,Mostly Cloudy,140,2013-05-27 14:53:00
10:53 AM,62.1,41.0,46,30.04,10.0,SE,13.8,-,N/A,,Overcast,130,2013-05-27 15:53:00
11:53 AM,66.0,42.1,42,30.00,10.0,ESE,16.1,20.7,N/A,,Overcast,110,2013-05-27 16:53:00
12:53 PM,66.0,42.1,42,29.99,10.0,SE,17.3,24.2,N/A,,Overcast,140,2013-05-27 17:53:00
1:53 PM,64.9,43.0,45,29.98,10.0,SE,15.0,-,N/A,,Overcast,140,2013-05-27 18:53:00
2:53 PM,64.0,39.9,41,30.00,10.0,SSE,10.4,19.6,N/A,,Overcast,160,2013-05-27 19:53:00
3:53 PM,64.0,39.9,41,29.98,10.0,SE,13.8,19.6,N/A,,Overcast,130,2013-05-27 20:53:00
4:53 PM,64.9,39.9,40,29.96,10.0,SE,12.7,-,N/A,,Overcast,130,2013-05-27 21:53:00
5:53 PM,66.0,39.0,37,29.94,10.0,SE,10.4,19.6,N/A,,Overcast,130,2013-05-27 22:53:00
6:53 PM,64.9,39.0,39,29.91,10.0,ESE,11.5,-,N/A,,Overcast,120,2013-05-27 23:53:00
7:53 PM,63.0,37.9,40,29.92,10.0,SE,6.9,-,N/A,,Overcast,140,2013-05-28 00:53:00
8:53 PM,61.0,37.0,41,29.91,10.0,ESE,8.1,-,N/A,,Overcast,120,2013-05-28 01:53:00
9:53 PM,60.1,36.0,41,29.92,10.0,East,5.8,-,N/A,,Overcast,100,2013-05-28 02:53:00
10:53 PM,59.0,34.0,39,29.91,10.0,ESE,8.1,-,N/A,,Overcast,110,2013-05-28 03:53:00
11:53 PM,57.0,35.1,44,29.89,10.0,ESE,5.8,-,N/A,,Overcast,120,2013-05-28 04:53:00